createdAt,value
2022-08-21T00:00:30.202Z,35.70
2022-08-21T00:03:33.820Z,35.80
2022-08-21T00:06:37.211Z,37.20
2022-08-21T00:09:40.208Z,33.43
2022-08-21T00:12:43.669Z,32.85
2022-08-21T00:15:46.639Z,33.35
2022-08-21T00:18:49.485Z,31.85
2022-08-21T00:21:53.307Z,37.28
2022-08-21T00:24:55.835Z,38.77
2022-08-21T00:27:58.576Z,39.35
2022-08-21T00:31:01.138Z,39.40
2022-08-21T00:34:04.247Z,44.17
2022-08-21T00:37:07.563Z,43.05
2022-08-21T00:40:16.007Z,43.90
2022-08-21T00:43:22.224Z,45.53
2022-08-21T00:46:28.455Z,44.72
2022-08-21T00:49:30.952Z,43.60
2022-08-21T00:52:36.750Z,44.88
2022-08-21T00:55:39.358Z,38.27
2022-08-21T00:58:43.900Z,46.30
2022-08-21T01:01:46.655Z,43.65
2022-08-21T01:04:50.072Z,54.05
2022-08-21T01:07:52.890Z,51.83
2022-08-21T01:10:55.640Z,48.87
2022-08-21T01:14:01.905Z,52.30
2022-08-21T01:17:05.072Z,56.83
2022-08-21T01:20:11.686Z,49.40
2022-08-21T01:23:14.200Z,54.28
2022-08-21T01:26:19.443Z,57.40
2022-08-21T01:29:24.451Z,51.40
2022-08-21T01:32:26.951Z,54.10
2022-08-21T01:35:29.835Z,50.83
2022-08-21T01:38:32.398Z,51.63
2022-08-21T01:41:34.833Z,50.90
2022-08-21T01:44:37.624Z,51.28
2022-08-21T01:47:40.577Z,47.03
2022-08-21T01:50:43.079Z,42.47
2022-08-21T01:53:45.462Z,41.47
2022-08-21T01:56:51.139Z,39.50
2022-08-21T01:59:54.108Z,37.05
2022-08-21T02:02:57.152Z,34.88
2022-08-21T02:05:59.647Z,34.70
2022-08-21T02:09:07.237Z,35.03
2022-08-21T02:12:11.318Z,38.73
2022-08-21T02:15:13.986Z,32.17
2022-08-21T02:18:16.854Z,33.13
2022-08-21T02:21:20.136Z,36.38
2022-08-21T02:24:22.533Z,31.50
2022-08-21T02:27:27.197Z,34.30
2022-08-21T02:30:35.896Z,30.77
2022-08-21T02:33:38.439Z,32.72
2022-08-21T02:36:40.813Z,33.08
2022-08-21T02:39:43.259Z,30.00
2022-08-21T02:42:46.077Z,30.73
2022-08-21T02:45:49.830Z,27.17
2022-08-21T02:48:52.463Z,26.58
2022-08-21T02:51:54.864Z,33.35
2022-08-21T02:54:57.291Z,35.70
2022-08-21T02:58:00.342Z,30.53
2022-08-21T03:01:03.894Z,31.27
2022-08-21T03:04:06.465Z,29.45
2022-08-21T03:07:11.203Z,30.88
2022-08-21T03:10:14.319Z,26.33
2022-08-21T03:13:17.306Z,31.83
2022-08-21T03:16:20.595Z,26.30
2022-08-21T03:19:23.022Z,22.23
2022-08-21T03:22:25.700Z,21.38
2022-08-21T03:25:40.420Z,21.95
2022-08-21T03:28:43.480Z,19.37
2022-08-21T03:31:46.053Z,19.40
2022-08-21T03:34:48.713Z,16.50
2022-08-21T03:37:51.067Z,20.63
2022-08-21T03:40:54.187Z,18.00
2022-08-21T03:43:56.547Z,18.63
2022-08-21T03:46:59.564Z,18.92
2022-08-21T03:50:04.617Z,16.88
2022-08-21T03:53:07.720Z,16.17
2022-08-21T03:56:10.090Z,16.65
2022-08-21T03:59:12.698Z,17.80
2022-08-21T04:02:20.160Z,16.58
2022-08-21T04:05:28.377Z,17.77
2022-08-21T04:08:31.277Z,15.57
2022-08-21T04:11:33.632Z,14.57
2022-08-21T04:14:36.026Z,15.87
2022-08-21T04:17:38.387Z,16.02
2022-08-21T04:20:49.909Z,19.20
2022-08-21T04:23:55.791Z,16.63
2022-08-21T04:26:58.177Z,15.90
2022-08-21T04:30:01.912Z,18.20
2022-08-21T04:33:05.192Z,16.23
2022-08-21T04:36:08.067Z,15.40
2022-08-21T04:39:10.849Z,16.58
2022-08-21T04:42:13.236Z,18.63
2022-08-21T04:45:30.977Z,23.23
2022-08-21T04:48:36.846Z,18.73
2022-08-21T04:51:40.135Z,19.02
2022-08-21T04:54:46.218Z,17.38
2022-08-21T04:57:52.363Z,20.87
2022-08-21T05:00:58.882Z,25.90
2022-08-21T05:04:03.330Z,38.10
2022-08-21T05:07:11.250Z,31.55
2022-08-21T05:10:15.086Z,21.13
2022-08-21T05:13:18.356Z,19.13
2022-08-21T05:16:37.321Z,19.93
2022-08-21T05:19:40.954Z,19.77
2022-08-21T05:22:43.666Z,17.75
2022-08-21T05:25:46.137Z,20.80
2022-08-21T05:28:48.553Z,18.77
2022-08-21T05:31:51.007Z,21.13
2022-08-21T05:34:53.370Z,22.80
2022-08-21T05:37:57.053Z,25.13
2022-08-21T05:40:59.452Z,22.67
2022-08-21T05:44:01.963Z,21.60
2022-08-21T05:47:09.434Z,22.20
2022-08-21T05:50:12.262Z,21.80
2022-08-21T05:53:16.433Z,23.13
2022-08-21T05:56:19.247Z,21.38
2022-08-21T05:59:21.900Z,24.03
2022-08-21T06:02:24.287Z,28.33
2022-08-21T06:05:36.563Z,23.80
2022-08-21T06:08:40.185Z,24.98
2022-08-21T06:11:42.929Z,22.52
2022-08-21T06:14:45.424Z,24.02
2022-08-21T06:17:47.760Z,25.53
2022-08-21T06:20:50.238Z,24.95
2022-08-21T06:23:52.626Z,25.35
2022-08-21T06:26:55.685Z,24.88
2022-08-21T06:29:58.868Z,28.13
2022-08-21T06:33:02.531Z,27.03
2022-08-21T06:36:05.063Z,28.05
2022-08-21T06:39:16.474Z,26.77
2022-08-21T06:42:30.719Z,28.55
2022-08-21T06:45:33.127Z,28.73
2022-08-21T06:48:35.657Z,27.83
2022-08-21T06:51:38.018Z,25.00
2022-08-21T06:54:41.316Z,27.98
2022-08-21T06:57:43.720Z,24.52
2022-08-21T07:00:57.639Z,24.52
2022-08-21T07:04:02.866Z,25.27
2022-08-21T07:07:05.266Z,25.80
2022-08-21T07:10:08.324Z,26.13
2022-08-21T07:13:22.695Z,27.65
2022-08-21T07:16:25.555Z,24.63
2022-08-21T07:19:28.036Z,26.07
2022-08-21T07:22:30.756Z,24.38
2022-08-21T07:25:33.184Z,24.27
2022-08-21T07:28:35.736Z,25.42
2022-08-21T07:31:38.449Z,27.15
2022-08-21T07:34:40.818Z,28.93
2022-08-21T07:37:43.207Z,26.90
2022-08-21T07:40:47.492Z,27.63
2022-08-21T07:43:49.991Z,28.90
2022-08-21T07:46:55.264Z,28.23
2022-08-21T07:49:58.023Z,25.63
2022-08-21T07:53:00.878Z,31.00
2022-08-21T07:56:05.469Z,26.90
2022-08-21T07:59:07.943Z,25.35
2022-08-21T08:02:10.682Z,26.55
2022-08-21T08:05:13.650Z,25.93
2022-08-21T08:08:16.102Z,26.55
2022-08-21T08:11:18.529Z,26.65
2022-08-21T08:14:20.922Z,29.70
2022-08-21T08:17:34.344Z,27.83
2022-08-21T08:20:36.908Z,26.13
2022-08-21T08:23:39.887Z,30.17
2022-08-21T08:26:42.240Z,29.08
2022-08-21T08:29:45.698Z,29.13
2022-08-21T08:32:49.178Z,31.17
2022-08-21T08:35:53.243Z,31.30
2022-08-21T08:38:55.813Z,28.98
2022-08-21T08:42:33.181Z,31.38
2022-08-21T08:45:33.145Z,31.05
2022-08-21T08:48:52.806Z,30.80
2022-08-21T08:52:02.457Z,32.67
2022-08-21T08:55:20.904Z,30.17
2022-08-21T08:58:28.397Z,32.60
2022-08-21T09:01:33.450Z,35.78
2022-08-21T09:04:38.035Z,34.13
2022-08-21T09:08:09.462Z,34.37
2022-08-21T09:11:26.398Z,31.88
2022-08-21T09:14:55.863Z,36.22
2022-08-21T09:18:22.066Z,34.92
2022-08-21T09:21:42.013Z,34.58
2022-08-21T09:24:58.093Z,33.53
2022-08-21T09:28:00.526Z,34.92
2022-08-21T09:31:33.762Z,33.55
2022-08-21T09:34:37.092Z,32.20
2022-08-21T09:37:47.388Z,34.35
2022-08-21T09:40:58.455Z,37.00
2022-08-21T09:44:00.837Z,38.25
2022-08-21T09:47:03.289Z,39.53
2022-08-21T09:50:13.610Z,42.95
2022-08-21T09:53:32.576Z,39.10
2022-08-21T09:56:58.439Z,35.77
2022-08-21T10:00:25.210Z,36.28
2022-08-21T10:03:28.292Z,35.00
2022-08-21T10:06:30.877Z,37.67
2022-08-21T10:09:33.671Z,40.73
2022-08-21T10:13:00.913Z,36.80
2022-08-21T10:16:31.405Z,38.63
2022-08-21T10:19:49.278Z,36.28
2022-08-21T10:23:03.913Z,41.80
2022-08-21T10:26:38.573Z,36.77
2022-08-21T10:30:09.154Z,40.80
2022-08-21T10:33:27.359Z,39.47
2022-08-21T10:36:34.872Z,38.60
2022-08-21T10:40:10.529Z,39.97
2022-08-21T10:43:29.964Z,40.50
2022-08-21T10:46:50.438Z,43.50
2022-08-21T10:50:28.856Z,41.10
2022-08-21T10:53:48.124Z,40.42
2022-08-21T10:56:58.321Z,39.70
2022-08-21T11:00:11.439Z,37.53
2022-08-21T11:03:16.889Z,42.37
2022-08-21T11:06:25.945Z,47.40
2022-08-21T11:09:28.714Z,44.38
2022-08-21T11:12:42.565Z,40.35
2022-08-21T11:16:20.543Z,37.97
2022-08-21T11:19:33.160Z,37.37
2022-08-21T11:23:01.480Z,39.13
2022-08-21T11:26:16.811Z,40.63
2022-08-21T11:29:27.597Z,37.58
2022-08-21T11:32:48.353Z,38.92
2022-08-21T11:36:21.780Z,37.00
2022-08-21T11:39:51.379Z,37.58
2022-08-21T11:43:38.758Z,36.83
2022-08-21T11:46:50.909Z,34.53
2022-08-21T11:50:02.062Z,35.45
2022-08-21T11:53:14.361Z,39.97
2022-08-21T11:56:22.404Z,35.38
2022-08-21T11:59:40.847Z,34.50
2022-08-21T12:03:05.851Z,35.42
2022-08-21T12:06:11.493Z,41.28
2022-08-21T12:09:25.734Z,40.27
2022-08-21T12:12:39.493Z,42.13
2022-08-21T12:15:41.896Z,36.60
2022-08-21T12:18:44.645Z,39.08
2022-08-21T12:22:04.162Z,37.53
2022-08-21T12:25:19.661Z,28.97
2022-08-21T12:28:25.919Z,31.27
2022-08-21T12:31:29.055Z,30.75
2022-08-21T12:34:43.644Z,30.80
2022-08-21T12:37:57.062Z,31.05
2022-08-21T12:41:07.455Z,27.60
2022-08-21T12:44:13.783Z,27.58
2022-08-21T12:47:18.612Z,28.02
2022-08-21T12:50:29.871Z,28.30
2022-08-21T12:53:39.916Z,26.77
2022-08-21T12:56:42.303Z,28.70
2022-08-21T12:59:44.921Z,27.75
2022-08-21T13:02:50.232Z,31.20
2022-08-21T13:05:54.645Z,26.90
2022-08-21T13:09:04.509Z,27.33
2022-08-21T13:12:09.697Z,27.23
2022-08-21T13:15:12.373Z,21.55
2022-08-21T13:18:29.666Z,24.50
2022-08-21T13:21:41.531Z,20.45
2022-08-21T13:24:47.694Z,23.97
2022-08-21T13:28:08.191Z,18.40
2022-08-21T13:31:11.451Z,16.52
2022-08-21T13:34:15.684Z,17.17
2022-08-21T13:37:18.583Z,18.10
2022-08-21T13:40:42.996Z,19.92
2022-08-21T13:43:48.037Z,17.93
2022-08-21T13:46:51.839Z,19.55
2022-08-21T13:49:59.102Z,16.85
2022-08-21T13:53:05.365Z,20.13
2022-08-21T13:56:07.782Z,16.85
2022-08-21T13:59:12.609Z,16.93
2022-08-21T14:02:23.249Z,16.20
2022-08-21T14:05:32.385Z,16.17
2022-08-21T14:08:38.261Z,15.82
2022-08-21T14:11:41.272Z,17.52
2022-08-21T14:14:44.705Z,15.37
2022-08-21T14:17:47.396Z,17.00
2022-08-21T14:20:50.009Z,15.40
2022-08-21T14:24:13.501Z,16.25
2022-08-21T14:27:19.008Z,16.40
2022-08-21T14:30:30.260Z,14.33
2022-08-21T14:33:33.563Z,16.88
2022-08-21T14:36:35.926Z,16.85
2022-08-21T14:39:39.974Z,15.98
2022-08-21T14:42:45.966Z,18.63
2022-08-21T14:45:48.820Z,18.70
2022-08-21T14:48:51.887Z,17.60
2022-08-21T14:51:58.204Z,20.58
2022-08-21T14:55:00.968Z,19.33
2022-08-21T14:58:03.433Z,16.83
2022-08-21T15:01:10.824Z,18.87
2022-08-21T15:04:13.453Z,18.50
2022-08-21T15:07:15.830Z,19.40
2022-08-21T15:10:18.284Z,18.60
2022-08-21T15:13:21.835Z,22.20
2022-08-21T15:16:24.754Z,17.97
2022-08-21T15:19:28.344Z,18.50
2022-08-21T15:22:30.687Z,17.40
2022-08-21T15:25:33.951Z,18.73
2022-08-21T15:28:37.741Z,18.63
2022-08-21T15:32:01.433Z,16.73
2022-08-21T15:35:04.243Z,17.75
2022-08-21T15:38:07.283Z,20.08
2022-08-21T15:41:14.665Z,20.73
2022-08-21T15:44:17.428Z,19.37
2022-08-21T15:47:24.745Z,23.23
2022-08-21T15:50:27.426Z,17.52
2022-08-21T15:53:29.905Z,18.65
2022-08-21T15:56:37.893Z,17.23
2022-08-21T15:59:45.995Z,16.00
2022-08-21T16:02:51.392Z,17.13
2022-08-21T16:05:56.209Z,16.63
2022-08-21T16:08:59.554Z,16.92
2022-08-21T16:12:02.470Z,16.48
2022-08-21T16:15:08.511Z,15.33
2022-08-21T16:18:13.152Z,17.50
2022-08-21T16:21:16.639Z,16.95
2022-08-21T16:24:19.058Z,21.13
2022-08-21T16:27:21.595Z,19.40
2022-08-21T16:30:30.741Z,17.55
2022-08-21T16:33:40.489Z,15.83
2022-08-21T16:36:43.833Z,17.42
2022-08-21T16:39:46.315Z,22.08
2022-08-21T16:42:49.242Z,15.10
2022-08-21T16:45:53.096Z,17.58
2022-08-21T16:48:55.455Z,18.27
2022-08-21T16:51:58.059Z,18.20
2022-08-21T16:55:00.440Z,16.63
2022-08-21T16:58:07.268Z,15.50
2022-08-21T17:01:12.704Z,16.35
2022-08-21T17:04:15.243Z,16.23
2022-08-21T17:07:17.611Z,18.05
2022-08-21T17:10:20.371Z,16.88
2022-08-21T17:13:23.136Z,19.00
2022-08-21T17:16:26.082Z,16.17
2022-08-21T17:19:28.510Z,14.77
2022-08-21T17:22:30.883Z,21.05
2022-08-21T17:25:34.163Z,16.23
2022-08-21T17:28:37.597Z,15.45
2022-08-21T17:31:42.090Z,15.07
2022-08-21T17:34:45.075Z,15.80
2022-08-21T17:37:47.805Z,17.15
2022-08-21T17:40:50.763Z,17.70
2022-08-21T17:43:55.002Z,20.33
2022-08-21T17:46:57.545Z,19.20
2022-08-21T17:49:59.985Z,22.13
2022-08-21T17:53:02.812Z,21.73
2022-08-21T17:56:06.912Z,17.13
2022-08-21T17:59:10.586Z,18.10
2022-08-21T18:02:19.972Z,17.10
2022-08-21T18:05:23.032Z,18.73
2022-08-21T18:08:25.714Z,16.45
2022-08-21T18:11:30.563Z,17.10
2022-08-21T18:14:36.278Z,15.30
2022-08-21T18:17:40.668Z,17.60
2022-08-21T18:20:43.118Z,19.47
2022-08-21T18:23:45.447Z,15.50
2022-08-21T18:26:48.513Z,18.40
2022-08-21T18:29:54.518Z,18.52
2022-08-21T18:33:18.383Z,20.73
2022-08-21T18:36:40.710Z,25.43
2022-08-21T18:40:06.106Z,18.70
2022-08-21T18:43:28.424Z,17.73
2022-08-21T18:46:30.811Z,15.60
2022-08-21T18:49:53.097Z,16.80
2022-08-21T18:52:55.739Z,16.63
2022-08-21T18:56:05.350Z,17.40
2022-08-21T18:59:10.216Z,14.88
2022-08-21T19:02:12.813Z,16.80
2022-08-21T19:05:17.622Z,18.20
2022-08-21T19:08:23.243Z,16.07
2022-08-21T19:11:26.156Z,16.35
2022-08-21T19:14:29.311Z,16.98
2022-08-21T19:17:31.756Z,18.70
2022-08-21T19:20:36.871Z,14.67
2022-08-21T19:23:41.337Z,13.47
2022-08-21T19:26:46.751Z,19.40
2022-08-21T19:29:49.428Z,16.60
2022-08-21T19:32:52.041Z,17.20
2022-08-21T19:35:54.486Z,16.23
2022-08-21T19:38:57.673Z,18.27
2022-08-21T19:42:00.279Z,16.60
2022-08-21T19:45:04.439Z,17.80
2022-08-21T19:48:07.032Z,21.55
2022-08-21T19:51:09.663Z,17.30
2022-08-21T19:54:17.416Z,22.83
2022-08-21T19:57:19.994Z,19.85
2022-08-21T20:00:24.038Z,16.98
2022-08-21T20:03:26.596Z,22.13
2022-08-21T20:06:29.186Z,20.37
2022-08-21T20:09:33.024Z,16.63
2022-08-21T20:12:37.100Z,17.30
2022-08-21T20:15:39.987Z,18.52
2022-08-21T20:18:42.555Z,17.48
2022-08-21T20:21:46.445Z,15.60
2022-08-21T20:24:49.195Z,20.50
2022-08-21T20:27:51.602Z,17.00
2022-08-21T20:30:54.075Z,18.75
2022-08-21T20:33:56.628Z,18.10
2022-08-21T20:36:59.081Z,18.73
2022-08-21T20:40:08.145Z,19.03
2022-08-21T20:43:13.340Z,19.27
2022-08-21T20:46:22.451Z,17.15
2022-08-21T20:49:31.342Z,19.83
2022-08-21T20:52:36.988Z,15.70
2022-08-21T20:55:47.341Z,18.17
2022-08-21T20:59:00.379Z,18.58
2022-08-21T21:02:14.776Z,15.32
2022-08-21T21:05:43.171Z,19.30
2022-08-21T21:08:48.967Z,17.07
2022-08-21T21:11:57.579Z,15.37
2022-08-21T21:15:11.677Z,16.83
2022-08-21T21:18:32.295Z,15.55
2022-08-21T21:21:40.115Z,18.20
2022-08-21T21:25:06.218Z,15.60
2022-08-21T21:28:12.926Z,11.57
2022-08-21T21:31:17.295Z,13.38
2022-08-21T21:34:26.696Z,14.98
2022-08-21T21:37:33.777Z,14.38
2022-08-21T21:41:25.032Z,16.58
2022-08-21T21:44:45.360Z,11.47
2022-08-21T21:48:14.908Z,18.88
2022-08-21T21:52:00.081Z,16.30
2022-08-21T21:55:07.115Z,19.83
2022-08-21T21:58:44.055Z,23.63
2022-08-21T22:01:55.747Z,21.97
2022-08-21T22:05:07.281Z,20.65
2022-08-21T22:08:39.344Z,19.13
2022-08-21T22:12:17.407Z,19.02
2022-08-21T22:15:27.346Z,19.70
2022-08-21T22:18:37.517Z,20.70
2022-08-21T22:21:54.515Z,17.90
2022-08-21T22:25:07.706Z,17.63
2022-08-21T22:28:25.407Z,18.90
2022-08-21T22:31:32.389Z,17.48
2022-08-21T22:34:34.789Z,16.77
2022-08-21T22:37:40.497Z,17.92
2022-08-21T22:40:43.027Z,19.50
2022-08-21T22:44:01.705Z,24.73
2022-08-21T22:47:06.091Z,21.97
2022-08-21T22:50:32.533Z,19.70
2022-08-21T22:53:38.580Z,19.00
2022-08-21T22:56:45.273Z,18.45
2022-08-21T23:00:07.518Z,19.27
2022-08-21T23:03:18.906Z,22.53
2022-08-21T23:06:26.453Z,19.77
2022-08-21T23:09:36.512Z,24.33
2022-08-21T23:16:23.868Z,26.52
2022-08-21T23:20:09.913Z,25.67
2022-08-21T23:23:19.239Z,21.37
2022-08-21T23:26:36.814Z,31.27
2022-08-21T23:30:07.446Z,27.02
2022-08-21T23:33:18.943Z,26.80
2022-08-21T23:37:17.329Z,26.67
2022-08-21T23:40:50.425Z,24.27
2022-08-21T23:44:18.673Z,21.65
2022-08-21T23:47:37.896Z,23.45
2022-08-21T23:50:43.008Z,21.17
2022-08-21T23:53:59.355Z,20.23
2022-08-21T23:57:08.245Z,21.80
